Terminal Aerodrome Forecast
Issued by NWS

Home | Current Version | Previous Version | Text Only | Print | Product List | Glossary On
Versions: 1 2 3 4 5 6 7 8 9 10 11 12 13 14 15 16 17 18 19 20 21 22 23 24
000
FTUS43 KILX 280500
TAFDEC
TAF
KDEC 280529Z 2806/2906 10003KT 5SM BR SCT250
     FM280800 10003KT 3SM BR SCT250
     FM281400 15012KT P6SM SCT250
     FM281700 15015G25KT P6SM BKN250
     FM290200 15015G25KT P6SM BKN080=

USA.gov is the U.S. government's official web portal to all federal, state and local government web resources and services.